Accueil
METAR-TAF:

METAR-TAF

Aéroports :

Yap, Yap Island, Micronésie

Aéroport international de Yap

latitude: 09-29N, longitude: 138-05E, altitude: 28 m

Observation

Le bulletin a été fait il y a 45 minutes, à 08:51 UTC
Vent 6 kt de direction variable
Température 29°C
Humidité 84%
Pression 1009 hPa
Visibilité: 19.3 km
Quelques nuages à une hauteur de 1700 ft, Cumulus congestus.
Nuages épars à une hauteur de 13000 ft
Nuages fragmentés à une hauteur de 30000 ft

METAR: PTYA 290851Z VRB06KT 12SM FEW017TCU SCT130 BKN300 29/26 A2980 RMK TCU N SLP091 8/271 T02900258 52007

Heure: 19:36 (09:36 UTC)

Prévision

Le bulletin a été fait il y a 4 heures et 16 minutes, à 05:20 UTC
Prévision valable du 29 à 06 UTC au 30 à 06 UTC
Vent 7 kt de est
Visibilité: 10 km
Nuages épars à une hauteur de 2000 ft
Nuages fragmentés à une hauteur de 30000 ft
averses à proximité

TAF: PTYA 290520Z 2906/3006 09007KT P6SM VCSH SCT020 BKN300

Observations et prévisions météorologiques de plus de 4000 aéroports (messages METAR et TAF).

Les stations disponibles sont représentées par des disques jaunes et rouges sur la carte.

Passer la souris dessus pour voir le nom de la station.

Cliquer dessus pour voir les observations et prévisions météorologiques.

Pour changer de carte: cliquez sur les boutons verts avec une croix noire pour zoomer, sur le bouton vert avec un tiret pour effectuer un zoom arrière, ou sur les flèches vertes pour les cartes adjacentes.


METAR-TAF: